sensor_id;sensor_type;location;lat;lon;timestamp;pressure;altitude;pressure_sealevel;temperature;humidity
68654;BME280;55636;51.108;13.622;2023-06-10T00:00:59;100126.91;;;20.80;48.44
68654;BME280;55636;51.108;13.622;2023-06-10T00:02:01;100131.66;;;20.80;48.63
68654;BME280;55636;51.108;13.622;2023-06-10T00:03:04;100125.25;;;20.79;48.80
68654;BME280;55636;51.108;13.622;2023-06-10T00:04:07;100128.06;;;20.79;48.45
68654;BME280;55636;51.108;13.622;2023-06-10T00:05:09;100134.81;;;20.78;48.86
68654;BME280;55636;51.108;13.622;2023-06-10T00:06:12;100132.00;;;20.78;48.48
68654;BME280;55636;51.108;13.622;2023-06-10T00:07:15;100123.94;;;20.77;48.43
68654;BME280;55636;51.108;13.622;2023-06-10T00:08:17;100123.94;;;20.77;48.84
68654;BME280;55636;51.108;13.622;2023-06-10T00:09:21;100130.69;;;20.75;48.66
68654;BME280;55636;51.108;13.622;2023-06-10T00:10:24;100119.81;;;20.74;48.53
68654;BME280;55636;51.108;13.622;2023-06-10T00:11:27;100121.47;;;20.75;48.78
68654;BME280;55636;51.108;13.622;2023-06-10T00:12:29;100118.97;;;20.73;48.56
68654;BME280;55636;51.108;13.622;2023-06-10T00:13:33;100122.13;;;20.72;48.70
68654;BME280;55636;51.108;13.622;2023-06-10T00:14:37;100126.94;;;20.71;48.55
68654;BME280;55636;51.108;13.622;2023-06-10T00:15:39;100130.88;;;20.70;48.47
68654;BME280;55636;51.108;13.622;2023-06-10T00:16:42;100134.81;;;20.69;48.76
68654;BME280;55636;51.108;13.622;2023-06-10T00:17:47;100139.59;;;20.69;48.26
68654;BME280;55636;51.108;13.622;2023-06-10T00:18:51;100137.16;;;20.67;48.59
68654;BME280;55636;51.108;13.622;2023-06-10T00:19:53;100139.09;;;20.67;48.56
68654;BME280;55636;51.108;13.622;2023-06-10T00:20:56;100135.50;;;20.66;48.45
68654;BME280;55636;51.108;13.622;2023-06-10T00:21:59;100144.25;;;20.65;48.25
68654;BME280;55636;51.108;13.622;2023-06-10T00:23:01;100138.63;;;20.65;48.00
68654;BME280;55636;51.108;13.622;2023-06-10T00:24:04;100136.16;;;20.63;48.15
68654;BME280;55636;51.108;13.622;2023-06-10T00:25:15;100137.31;;;20.62;47.92
68654;BME280;55636;51.108;13.622;2023-06-10T00:26:17;100144.91;;;20.62;47.99
68654;BME280;55636;51.108;13.622;2023-06-10T00:27:20;100138.47;;;20.61;47.71
68654;BME280;55636;51.108;13.622;2023-06-10T00:28:22;100142.44;;;20.60;47.84
68654;BME280;55636;51.108;13.622;2023-06-10T00:29:25;100143.59;;;20.59;47.65
68654;BME280;55636;51.108;13.622;2023-06-10T00:30:27;100144.44;;;20.59;47.87
68654;BME280;55636;51.108;13.622;2023-06-10T00:31:29;100148.38;;;20.58;47.46
68654;BME280;55636;51.108;13.622;2023-06-10T00:32:34;100146.72;;;20.57;47.67
68654;BME280;55636;51.108;13.622;2023-06-10T00:33:36;100147.06;;;20.56;47.60
68654;BME280;55636;51.108;13.622;2023-06-10T00:34:39;100146.25;;;20.55;47.73
68654;BME280;55636;51.108;13.622;2023-06-10T00:35:41;100143.75;;;20.54;47.77
68654;BME280;55636;51.108;13.622;2023-06-10T00:36:43;100142.13;;;20.53;48.05
68654;BME280;55636;51.108;13.622;2023-06-10T00:37:46;100143.28;;;20.52;47.90
68654;BME280;55636;51.108;13.622;2023-06-10T00:38:49;100148.41;;;20.50;48.07
68654;BME280;55636;51.108;13.622;2023-06-10T00:39:51;100146.44;;;20.50;48.03
68654;BME280;55636;51.108;13.622;2023-06-10T00:40:54;100145.13;;;20.48;47.70
68654;BME280;55636;51.108;13.622;2023-06-10T00:41:56;100140.66;;;20.47;47.80
68654;BME280;55636;51.108;13.622;2023-06-10T00:42:59;100141.00;;;20.45;47.82
68654;BME280;55636;51.108;13.622;2023-06-10T00:44:01;100147.75;;;20.44;47.89
68654;BME280;55636;51.108;13.622;2023-06-10T00:45:05;100148.09;;;20.42;47.99
68654;BME280;55636;51.108;13.622;2023-06-10T00:46:11;100148.44;;;20.41;47.58
68654;BME280;55636;51.108;13.622;2023-06-10T00:47:14;100137.84;;;20.38;47.55
68654;BME280;55636;51.108;13.622;2023-06-10T00:48:17;100148.28;;;20.37;47.76
68654;BME280;55636;51.108;13.622;2023-06-10T00:49:19;100144.63;;;20.37;47.63
68654;BME280;55636;51.108;13.622;2023-06-10T00:50:22;100149.75;;;20.35;47.41
68654;BME280;55636;51.108;13.622;2023-06-10T00:51:26;100148.44;;;20.32;47.37
68654;BME280;55636;51.108;13.622;2023-06-10T00:52:29;100138.72;;;20.30;47.64
68654;BME280;55636;51.108;13.622;2023-06-10T00:53:32;100147.47;;;20.28;47.38
68654;BME280;55636;51.108;13.622;2023-06-10T00:54:36;100150.56;;;20.26;47.90
68654;BME280;55636;51.108;13.622;2023-06-10T00:55:40;100148.09;;;20.25;47.95
68654;BME280;55636;51.108;13.622;2023-06-10T00:56:43;100152.41;;;20.22;47.71
68654;BME280;55636;51.108;13.622;2023-06-10T00:57:46;100162.28;;;20.20;48.02
68654;BME280;55636;51.108;13.622;2023-06-10T00:58:50;100150.94;;;20.16;48.12
68654;BME280;55636;51.108;13.622;2023-06-10T00:59:54;100154.88;;;20.15;48.19
68654;BME280;55636;51.108;13.622;2023-06-10T01:00:56;100160.00;;;20.13;47.97
68654;BME280;55636;51.108;13.622;2023-06-10T01:02:03;100165.13;;;20.11;48.10
68654;BME280;55636;51.108;13.622;2023-06-10T01:03:06;100166.59;;;20.08;48.01
68654;BME280;55636;51.108;13.622;2023-06-10T01:04:10;100166.91;;;20.07;48.26
68654;BME280;55636;51.108;13.622;2023-06-10T01:05:14;100172.03;;;20.05;48.01
68654;BME280;55636;51.108;13.622;2023-06-10T01:06:39;100180.78;;;20.03;47.98
68654;BME280;55636;51.108;13.622;2023-06-10T01:10:50;100186.38;;;19.95;47.96
68654;BME280;55636;51.108;13.622;2023-06-10T01:12:14;100185.03;;;19.92;48.02
68654;BME280;55636;51.108;13.622;2023-06-10T01:13:19;100188.97;;;19.91;47.79
68654;BME280;55636;51.108;13.622;2023-06-10T01:14:26;100185.19;;;19.87;47.95
68654;BME280;55636;51.108;13.622;2023-06-10T01:15:30;100183.88;;;19.84;48.24
68654;BME280;55636;51.108;13.622;2023-06-10T01:16:33;100184.19;;;19.83;48.15
68654;BME280;55636;51.108;13.622;2023-06-10T01:18:00;100181.22;;;19.79;47.76
68654;BME280;55636;51.108;13.622;2023-06-10T01:19:05;100178.75;;;19.77;48.10
68654;BME280;55636;51.108;13.622;2023-06-10T01:20:08;100178.22;;;19.75;48.07
68654;BME280;55636;51.108;13.622;2023-06-10T01:21:20;100174.13;;;19.73;48.32
68654;BME280;55636;51.108;13.622;2023-06-10T01:22:24;100171.97;;;19.70;48.29
68654;BME280;55636;51.108;13.622;2023-06-10T01:23:28;100177.91;;;19.68;48.28
68654;BME280;55636;51.108;13.622;2023-06-10T01:24:30;100175.75;;;19.65;48.37
68654;BME280;55636;51.108;13.622;2023-06-10T01:25:48;100188.44;;;19.63;48.25
68654;BME280;55636;51.108;13.622;2023-06-10T01:26:53;100191.91;;;19.59;48.35
68654;BME280;55636;51.108;13.622;2023-06-10T01:29:18;100199.31;;;19.55;48.31
68654;BME280;55636;51.108;13.622;2023-06-10T01:30:26;100195.50;;;19.51;48.65
68654;BME280;55636;51.108;13.622;2023-06-10T01:31:41;100197.78;;;19.49;48.41
68654;BME280;55636;51.108;13.622;2023-06-10T01:32:48;100190.06;;;19.46;48.64
68654;BME280;55636;51.108;13.622;2023-06-10T01:33:52;100196.81;;;19.45;48.53
68654;BME280;55636;51.108;13.622;2023-06-10T01:34:59;100197.13;;;19.43;48.50
68654;BME280;55636;51.108;13.622;2023-06-10T01:36:03;100195.81;;;19.41;48.65
68654;BME280;55636;51.108;13.622;2023-06-10T01:37:05;100197.28;;;19.38;48.67
68654;BME280;55636;51.108;13.622;2023-06-10T01:38:08;100194.81;;;19.37;48.50
68654;BME280;55636;51.108;13.622;2023-06-10T01:39:11;100195.09;;;19.35;48.52
68654;BME280;55636;51.108;13.622;2023-06-10T01:40:16;100199.09;;;19.34;49.09
68654;BME280;55636;51.108;13.622;2023-06-10T01:41:19;100200.56;;;19.32;48.85
68654;BME280;55636;51.108;13.622;2023-06-10T01:42:23;100200.03;;;19.30;48.83
68654;BME280;55636;51.108;13.622;2023-06-10T01:43:26;100198.72;;;19.27;49.29
68654;BME280;55636;51.108;13.622;2023-06-10T01:44:29;100199.84;;;19.26;48.91
68654;BME280;55636;51.108;13.622;2023-06-10T01:45:31;100202.16;;;19.24;49.06
68654;BME280;55636;51.108;13.622;2023-06-10T01:46:33;100205.31;;;19.22;49.10
68654;BME280;55636;51.108;13.622;2023-06-10T01:47:36;100199.19;;;19.20;49.10
68654;BME280;55636;51.108;13.622;2023-06-10T01:48:38;100205.13;;;19.19;49.15
68654;BME280;55636;51.108;13.622;2023-06-10T01:49:41;100202.63;;;19.17;49.45
68654;BME280;55636;51.108;13.622;2023-06-10T01:50:44;100199.84;;;19.17;49.11
68654;BME280;55636;51.108;13.622;2023-06-10T01:51:46;100209.69;;;19.15;49.53
68654;BME280;55636;51.108;13.622;2023-06-10T01:52:48;100207.19;;;19.13;49.30
68654;BME280;55636;51.108;13.622;2023-06-10T01:53:51;100210.31;;;19.11;49.62
68654;BME280;55636;51.108;13.622;2023-06-10T01:54:54;100208.66;;;19.10;49.64
68654;BME280;55636;51.108;13.622;2023-06-10T01:55:57;100214.56;;;19.09;49.49
68654;BME280;55636;51.108;13.622;2023-06-10T01:56:59;100213.75;;;19.08;49.67
68654;BME280;55636;51.108;13.622;2023-06-10T01:58:02;100215.22;;;19.06;49.58
68654;BME280;55636;51.108;13.622;2023-06-10T01:59:05;100212.75;;;19.04;49.84
68654;BME280;55636;51.108;13.622;2023-06-10T02:00:07;100209.44;;;19.02;49.49
68654;BME280;55636;51.108;13.622;2023-06-10T02:01:15;100219.81;;;19.02;49.56
68654;BME280;55636;51.108;13.622;2023-06-10T02:02:18;100211.75;;;19.00;49.87
68654;BME280;55636;51.108;13.622;2023-06-10T02:03:20;100218.50;;;18.99;49.77
68654;BME280;55636;51.108;13.622;2023-06-10T02:04:23;100216.03;;;18.98;49.89
68654;BME280;55636;51.108;13.622;2023-06-10T02:05:25;100226.69;;;18.96;nan
68654;BME280;55636;51.108;13.622;2023-06-10T02:06:28;100219.44;;;18.94;50.05
68654;BME280;55636;51.108;13.622;2023-06-10T02:07:30;100221.75;;;18.92;49.95
68654;BME280;55636;51.108;13.622;2023-06-10T02:08:32;100218.09;;;18.92;50.02
68654;BME280;55636;51.108;13.622;2023-06-10T02:09:36;100222.38;;;18.89;50.33
68654;BME280;55636;51.108;13.622;2023-06-10T02:10:39;100221.56;;;18.89;50.21
68654;BME280;55636;51.108;13.622;2023-06-10T02:11:42;100225.81;;;18.86;50.22
68654;BME280;55636;51.108;13.622;2023-06-10T02:12:45;100216.91;;;18.84;50.37
68654;BME280;55636;51.108;13.622;2023-06-10T02:13:47;100220.03;;;18.83;50.30
68654;BME280;55636;51.108;13.622;2023-06-10T02:14:50;100221.19;;;18.82;50.34
68654;BME280;55636;51.108;13.622;2023-06-10T02:15:53;100225.44;;;18.79;50.24
68654;BME280;55636;51.108;13.622;2023-06-10T02:16:56;100223.81;;;18.78;50.33
68654;BME280;55636;51.108;13.622;2023-06-10T02:17:59;100225.75;;;18.77;50.58
68654;BME280;55636;51.108;13.622;2023-06-10T02:19:02;100230.03;;;18.75;50.79
68654;BME280;55636;51.108;13.622;2023-06-10T02:20:08;100234.28;;;18.72;50.43
68654;BME280;55636;51.108;13.622;2023-06-10T02:21:12;100231.00;;;18.70;50.57
68654;BME280;55636;51.108;13.622;2023-06-10T02:22:15;100229.66;;;18.68;50.63
68654;BME280;55636;51.108;13.622;2023-06-10T02:23:17;100231.63;;;18.67;50.91
68654;BME280;55636;51.108;13.622;2023-06-10T02:24:20;100227.47;;;18.65;50.60
68654;BME280;55636;51.108;13.622;2023-06-10T02:25:23;100231.41;;;18.64;50.71
68654;BME280;55636;51.108;13.622;2023-06-10T02:26:25;100232.59;;;18.63;50.84
68654;BME280;55636;51.108;13.622;2023-06-10T02:27:28;100233.22;;;18.59;50.99
68654;BME280;55636;51.108;13.622;2023-06-10T02:28:30;100229.06;;;18.57;51.04
68654;BME280;55636;51.108;13.622;2023-06-10T02:29:34;100240.25;;;18.57;50.78
68654;BME280;55636;51.108;13.622;2023-06-10T02:31:43;100230.66;;;18.49;51.21
68654;BME280;55636;51.108;13.622;2023-06-10T02:32:46;100245.81;;;18.48;51.17
68654;BME280;55636;51.108;13.622;2023-06-10T02:33:52;100237.72;;;18.47;51.10
68654;BME280;55636;51.108;13.622;2023-06-10T02:34:54;100227.19;;;18.43;51.17
68654;BME280;55636;51.108;13.622;2023-06-10T02:35:58;100231.09;;;18.42;51.56
68654;BME280;55636;51.108;13.622;2023-06-10T02:37:02;100229.78;;;18.40;51.17
68654;BME280;55636;51.108;13.622;2023-06-10T02:38:05;100231.75;;;18.39;51.34
68654;BME280;55636;51.108;13.622;2023-06-10T02:39:09;100232.41;;;18.36;51.35
68654;BME280;55636;51.108;13.622;2023-06-10T02:40:12;100233.81;;;18.34;51.59
68654;BME280;55636;51.108;13.622;2023-06-10T02:41:14;100234.13;;;18.32;51.78
68654;BME280;55636;51.108;13.622;2023-06-10T02:42:18;100231.66;;;18.31;51.73
68654;BME280;55636;51.108;13.622;2023-06-10T02:43:20;100232.28;;;18.27;51.72
68654;BME280;55636;51.108;13.622;2023-06-10T02:44:23;100227.00;;;18.26;51.42
68654;BME280;55636;51.108;13.622;2023-06-10T02:45:25;100224.50;;;18.24;51.59
68654;BME280;55636;51.108;13.622;2023-06-10T02:46:28;100227.63;;;18.23;51.75
68654;BME280;55636;51.108;13.622;2023-06-10T02:47:31;100226.28;;;18.20;52.08
68654;BME280;55636;51.108;13.622;2023-06-10T02:48:40;100231.38;;;18.18;51.84
68654;BME280;55636;51.108;13.622;2023-06-10T02:49:44;100227.25;;;18.16;51.83
68654;BME280;55636;51.108;13.622;2023-06-10T02:50:46;100225.59;;;18.15;51.92
68654;BME280;55636;51.108;13.622;2023-06-10T02:51:57;100225.91;;;18.13;52.21
68654;BME280;55636;51.108;13.622;2023-06-10T02:53:01;100231.81;;;18.11;52.20
68654;BME280;55636;51.108;13.622;2023-06-10T02:54:04;100224.91;;;18.09;52.00
68654;BME280;55636;51.108;13.622;2023-06-10T02:55:07;100225.19;;;18.07;52.15
68654;BME280;55636;51.108;13.622;2023-06-10T02:56:10;100225.50;;;18.06;52.36
68654;BME280;55636;51.108;13.622;2023-06-10T02:57:15;100225.81;;;18.04;52.09
68654;BME280;55636;51.108;13.622;2023-06-10T02:58:17;100219.72;;;18.02;52.34
68654;BME280;55636;51.108;13.622;2023-06-10T02:59:19;100232.06;;;18.01;52.55
68654;BME280;55636;51.108;13.622;2023-06-10T03:00:22;100228.41;;;18.01;52.33
68654;BME280;55636;51.108;13.622;2023-06-10T03:01:25;100229.88;;;17.98;52.19
68654;BME280;55636;51.108;13.622;2023-06-10T03:02:34;100224.59;;;17.97;52.37
68654;BME280;55636;51.108;13.622;2023-06-10T03:03:40;100234.44;;;17.94;52.37
68654;BME280;55636;51.108;13.622;2023-06-10T03:04:47;100234.75;;;17.92;52.51
68654;BME280;55636;51.108;13.622;2023-06-10T03:05:52;100233.94;;;17.92;52.57
68654;BME280;55636;51.108;13.622;2023-06-10T03:06:56;100235.91;;;17.91;52.72
68654;BME280;55636;51.108;13.622;2023-06-10T03:08:05;100229.28;;;17.87;52.95
68654;BME280;55636;51.108;13.622;2023-06-10T03:09:12;100230.41;;;17.86;53.12
68654;BME280;55636;51.108;13.622;2023-06-10T03:10:17;100239.13;;;17.85;53.01
68654;BME280;55636;51.108;13.622;2023-06-10T03:11:19;100238.59;;;17.83;52.84
68654;BME280;55636;51.108;13.622;2023-06-10T03:12:23;100236.13;;;17.81;53.13
68654;BME280;55636;51.108;13.622;2023-06-10T03:13:26;100240.03;;;17.80;52.90
68654;BME280;55636;51.108;13.622;2023-06-10T03:14:28;100230.31;;;17.77;53.24
68654;BME280;55636;51.108;13.622;2023-06-10T03:15:31;100237.88;;;17.77;53.41
68654;BME280;55636;51.108;13.622;2023-06-10T03:16:36;100228.16;;;17.74;53.21
68654;BME280;55636;51.108;13.622;2023-06-10T03:17:43;100233.75;;;17.74;53.27
68654;BME280;55636;51.108;13.622;2023-06-10T03:18:46;100238.00;;;17.72;53.11
68654;BME280;55636;51.108;13.622;2023-06-10T03:19:49;100240.25;;;17.70;53.48
68654;BME280;55636;51.108;13.622;2023-06-10T03:20:52;100237.78;;;17.68;53.25
68654;BME280;55636;51.108;13.622;2023-06-10T03:22:16;100241.75;;;17.67;52.94
68654;BME280;55636;51.108;13.622;2023-06-10T03:23:35;100239.22;;;17.66;53.31
68654;BME280;55636;51.108;13.622;2023-06-10T03:24:37;100240.41;;;17.65;53.45
68654;BME280;55636;51.108;13.622;2023-06-10T03:25:44;100235.94;;;17.64;53.80
68654;BME280;55636;51.108;13.622;2023-06-10T03:26:50;100237.06;;;17.62;53.62
68654;BME280;55636;51.108;13.622;2023-06-10T03:27:53;100239.06;;;17.62;53.72
68654;BME280;55636;51.108;13.622;2023-06-10T03:28:55;100246.91;;;17.60;53.76
68654;BME280;55636;51.108;13.622;2023-06-10T03:29:59;100246.09;;;17.59;53.76
68654;BME280;55636;51.108;13.622;2023-06-10T03:31:02;100247.72;;;17.60;54.06
68654;BME280;55636;51.108;13.622;2023-06-10T03:32:06;100256.09;;;17.60;53.77
68654;BME280;55636;51.108;13.622;2023-06-10T03:33:11;100250.50;;;17.60;53.99
68654;BME280;55636;51.108;13.622;2023-06-10T03:34:14;100248.56;;;17.61;54.00
68654;BME280;55636;51.108;13.622;2023-06-10T03:35:16;100250.50;;;17.60;53.92
68654;BME280;55636;51.108;13.622;2023-06-10T03:36:19;100247.44;;;17.62;54.09
68654;BME280;55636;51.108;13.622;2023-06-10T03:37:23;100250.22;;;17.62;54.03
68654;BME280;55636;51.108;13.622;2023-06-10T03:38:25;100250.72;;;17.64;54.26
68654;BME280;55636;51.108;13.622;2023-06-10T03:39:28;100249.59;;;17.65;54.07
68654;BME280;55636;51.108;13.622;2023-06-10T03:40:34;100254.84;;;17.67;54.44
68654;BME280;55636;51.108;13.622;2023-06-10T03:41:38;100248.63;;;17.70;54.33
68654;BME280;55636;51.108;13.622;2023-06-10T03:42:40;100251.97;;;17.72;54.05
68654;BME280;55636;51.108;13.622;2023-06-10T03:43:43;100248.84;;;17.73;54.04
68654;BME280;55636;51.108;13.622;2023-06-10T03:44:47;100257.75;;;17.75;54.14
68654;BME280;55636;51.108;13.622;2023-06-10T03:45:50;100261.03;;;17.77;54.24
68654;BME280;55636;51.108;13.622;2023-06-10T03:46:54;100261.25;;;17.81;53.97
68654;BME280;55636;51.108;13.622;2023-06-10T03:47:56;100255.34;;;17.83;54.17
68654;BME280;55636;51.108;13.622;2023-06-10T03:49:06;100255.25;;;17.88;53.97
68654;BME280;55636;51.108;13.622;2023-06-10T03:50:09;100254.63;;;17.91;54.13
68654;BME280;55636;51.108;13.622;2023-06-10T03:51:13;100255.66;;;17.95;53.84
68654;BME280;55636;51.108;13.622;2023-06-10T03:52:16;100244.69;;;17.99;54.00
68654;BME280;55636;51.108;13.622;2023-06-10T03:53:18;100264.44;;;18.02;53.97
68654;BME280;55636;51.108;13.622;2023-06-10T03:54:21;100261.03;;;18.05;53.72
68654;BME280;55636;51.108;13.622;2023-06-10T03:55:25;100262.84;;;18.10;53.57
68654;BME280;55636;51.108;13.622;2023-06-10T03:56:28;100263.06;;;18.14;53.44
68654;BME280;55636;51.108;13.622;2023-06-10T03:57:30;100264.09;;;18.18;53.50
68654;BME280;55636;51.108;13.622;2023-06-10T03:58:33;100270.41;;;18.23;53.75
68654;BME280;55636;51.108;13.622;2023-06-10T03:59:35;100269.75;;;18.26;53.52
68654;BME280;55636;51.108;13.622;2023-06-10T04:00:38;100269.66;;;18.32;53.44
68654;BME280;55636;51.108;13.622;2023-06-10T04:01:43;100277.13;;;18.36;53.63
68654;BME280;55636;51.108;13.622;2023-06-10T04:02:47;100258.56;;;18.40;53.47
68654;BME280;55636;51.108;13.622;2023-06-10T04:04:15;100266.53;;;18.47;53.08
68654;BME280;55636;51.108;13.622;2023-06-10T04:05:19;100266.41;;;18.52;53.29
68654;BME280;55636;51.108;13.622;2023-06-10T04:06:26;100268.75;;;18.59;53.20
68654;BME280;55636;51.108;13.622;2023-06-10T04:07:30;100267.50;;;18.65;52.93
68654;BME280;55636;51.108;13.622;2023-06-10T04:08:33;100269.00;;;18.71;52.93
68654;BME280;55636;51.108;13.622;2023-06-10T04:09:36;100268.88;;;18.76;53.04
68654;BME280;55636;51.108;13.622;2023-06-10T04:10:38;100269.59;;;18.82;52.66
68654;BME280;55636;51.108;13.622;2023-06-10T04:11:41;100266.66;;;18.87;52.91
68654;BME280;55636;51.108;13.622;2023-06-10T04:12:44;100267.34;;;18.93;52.71
68654;BME280;55636;51.108;13.622;2023-06-10T04:13:46;100275.28;;;19.00;52.78
68654;BME280;55636;51.108;13.622;2023-06-10T04:14:48;100277.13;;;19.04;52.52
68654;BME280;55636;51.108;13.622;2023-06-10T04:15:51;100278.34;;;19.12;52.46
68654;BME280;55636;51.108;13.622;2023-06-10T04:16:54;100270.66;;;19.18;52.19
68654;BME280;55636;51.108;13.622;2023-06-10T04:17:57;100270.19;;;19.24;52.50
68654;BME280;55636;51.108;13.622;2023-06-10T04:19:01;100266.09;;;19.31;52.50
68654;BME280;55636;51.108;13.622;2023-06-10T04:20:04;100271.25;;;19.37;51.99
68654;BME280;55636;51.108;13.622;2023-06-10T04:21:10;100266.31;;;19.43;51.89
68654;BME280;55636;51.108;13.622;2023-06-10T04:22:13;100276.22;;;19.49;51.84
68654;BME280;55636;51.108;13.622;2023-06-10T04:23:15;100273.78;;;19.56;51.74
68654;BME280;55636;51.108;13.622;2023-06-10T04:24:20;100269.38;;;19.64;51.74
68654;BME280;55636;51.108;13.622;2023-06-10T04:25:23;100277.31;;;19.71;51.65
68654;BME280;55636;51.108;13.622;2023-06-10T04:26:27;100274.03;;;19.77;51.65
68654;BME280;55636;51.108;13.622;2023-06-10T04:27:29;100273.53;;;19.84;51.60
68654;BME280;55636;51.108;13.622;2023-06-10T04:28:32;100272.72;;;19.92;51.27
68654;BME280;55636;51.108;13.622;2023-06-10T04:29:35;100264.72;;;20.00;51.29
68654;BME280;55636;51.108;13.622;2023-06-10T04:30:37;100265.03;;;20.07;51.00
68654;BME280;55636;51.108;13.622;2023-06-10T04:31:41;100272.16;;;20.13;51.09
68654;BME280;55636;51.108;13.622;2023-06-10T04:32:44;100278.09;;;20.20;50.66
68654;BME280;55636;51.108;13.622;2023-06-10T04:33:49;100277.28;;;20.29;50.57
68654;BME280;55636;51.108;13.622;2023-06-10T04:34:52;100276.78;;;20.35;50.45
68654;BME280;55636;51.108;13.622;2023-06-10T04:35:54;100270.38;;;20.44;50.33
68654;BME280;55636;51.108;13.622;2023-06-10T04:36:59;100278.75;;;20.52;50.24
68654;BME280;55636;51.108;13.622;2023-06-10T04:38:02;100277.13;;;20.60;50.12
68654;BME280;55636;51.108;13.622;2023-06-10T04:39:06;100273.47;;;20.68;49.85
68654;BME280;55636;51.108;13.622;2023-06-10T04:40:10;100273.84;;;20.75;49.63
68654;BME280;55636;51.108;13.622;2023-06-10T04:41:12;100271.03;;;20.84;49.49
68654;BME280;55636;51.108;13.622;2023-06-10T04:42:15;100273.78;;;20.93;49.60
68654;BME280;55636;51.108;13.622;2023-06-10T04:43:17;100274.63;;;21.02;49.44
68654;BME280;55636;51.108;13.622;2023-06-10T04:44:20;100272.13;;;21.10;49.38
68654;BME280;55636;51.108;13.622;2023-06-10T04:45:23;100271.75;;;21.20;48.88
68654;BME280;55636;51.108;13.622;2023-06-10T04:46:26;100279.66;;;21.27;48.88
68654;BME280;55636;51.108;13.622;2023-06-10T04:47:29;100276.03;;;21.35;48.70
68654;BME280;55636;51.108;13.622;2023-06-10T04:48:35;100277.13;;;21.42;48.43
68654;BME280;55636;51.108;13.622;2023-06-10T04:49:38;100282.75;;;21.51;48.32
68654;BME280;55636;51.108;13.622;2023-06-10T04:50:41;100274.28;;;21.60;48.07
68654;BME280;55636;51.108;13.622;2023-06-10T04:51:44;100271.75;;;21.67;48.05
68654;BME280;55636;51.108;13.622;2023-06-10T04:52:47;100275.38;;;21.77;47.80
68654;BME280;55636;51.108;13.622;2023-06-10T04:53:49;100276.47;;;21.84;47.50
68654;BME280;55636;51.108;13.622;2023-06-10T04:54:52;100278.06;;;21.94;47.60
68654;BME280;55636;51.108;13.622;2023-06-10T04:55:55;100267.13;;;22.01;47.48
68654;BME280;55636;51.108;13.622;2023-06-10T04:56:57;100270.69;;;22.11;47.19
68654;BME280;55636;51.108;13.622;2023-06-10T04:57:59;100272.66;;;22.19;47.20
68654;BME280;55636;51.108;13.622;2023-06-10T04:59:02;100270.59;;;22.28;47.02
68654;BME280;55636;51.108;13.622;2023-06-10T05:00:04;100271.34;;;22.37;46.73
68654;BME280;55636;51.108;13.622;2023-06-10T05:01:08;100266.81;;;22.45;46.49
68654;BME280;55636;51.108;13.622;2023-06-10T05:02:10;100276.00;;;22.54;46.32
68654;BME280;55636;51.108;13.622;2023-06-10T05:03:13;100278.75;;;22.63;46.34
68654;BME280;55636;51.108;13.622;2023-06-10T05:04:15;100276.66;;;22.72;46.03
68654;BME280;55636;51.108;13.622;2023-06-10T05:05:18;100279.41;;;22.81;46.13
68654;BME280;55636;51.108;13.622;2023-06-10T05:06:21;100283.81;;;22.91;45.28
68654;BME280;55636;51.108;13.622;2023-06-10T05:07:23;100280.09;;;22.99;45.53
68654;BME280;55636;51.108;13.622;2023-06-10T05:08:26;100273.53;;;23.08;45.44
68654;BME280;55636;51.108;13.622;2023-06-10T05:09:28;100276.25;;;23.16;45.29
68654;BME280;55636;51.108;13.622;2023-06-10T05:10:30;100274.53;;;23.24;45.43
68654;BME280;55636;51.108;13.622;2023-06-10T05:11:33;100277.22;;;23.33;44.96
68654;BME280;55636;51.108;13.622;2023-06-10T05:12:36;100271.47;;;23.42;44.97
68654;BME280;55636;51.108;13.622;2023-06-10T05:13:41;100278.19;;;23.49;44.57
68654;BME280;55636;51.108;13.622;2023-06-10T05:14:44;100270.81;;;23.57;44.67
68654;BME280;55636;51.108;13.622;2023-06-10T05:15:47;100281.63;;;23.67;44.36
68654;BME280;55636;51.108;13.622;2023-06-10T05:16:49;100280.22;;;23.74;44.30
68654;BME280;55636;51.108;13.622;2023-06-10T05:17:52;100286.56;;;23.83;43.78
68654;BME280;55636;51.108;13.622;2023-06-10T05:18:54;100276.34;;;23.91;43.91
68654;BME280;55636;51.108;13.622;2023-06-10T05:19:57;100284.66;;;23.99;43.59
68654;BME280;55636;51.108;13.622;2023-06-10T05:20:59;100287.72;;;24.07;43.69
68654;BME280;55636;51.108;13.622;2023-06-10T05:22:01;100283.13;;;24.14;43.35
68654;BME280;55636;51.108;13.622;2023-06-10T05:23:04;100288.69;;;24.23;43.57
68654;BME280;55636;51.108;13.622;2023-06-10T05:24:07;100289.72;;;24.31;43.46
68654;BME280;55636;51.108;13.622;2023-06-10T05:25:10;100293.22;;;24.40;43.23
68654;BME280;55636;51.108;13.622;2023-06-10T05:26:13;100281.75;;;24.49;42.93
68654;BME280;55636;51.108;13.622;2023-06-10T05:27:15;100290.47;;;24.56;42.64
68654;BME280;55636;51.108;13.622;2023-06-10T05:28:17;100283.84;;;24.64;42.37
68654;BME280;55636;51.108;13.622;2023-06-10T05:29:20;100284.06;;;24.72;42.29
68654;BME280;55636;51.108;13.622;2023-06-10T05:30:22;100285.44;;;24.78;42.17
68654;BME280;55636;51.108;13.622;2023-06-10T05:31:26;100287.75;;;24.88;42.17
68654;BME280;55636;51.108;13.622;2023-06-10T05:32:29;100283.13;;;24.96;41.92
68654;BME280;55636;51.108;13.622;2023-06-10T05:33:31;100292.63;;;25.03;42.01
68654;BME280;55636;51.108;13.622;2023-06-10T05:34:34;100285.16;;;25.11;41.70
68654;BME280;55636;51.108;13.622;2023-06-10T05:35:36;100287.84;;;25.20;41.77